createdAt,value
2022-11-27T00:00:10.155Z,49.37
2022-11-27T00:05:16.589Z,40.87
2022-11-27T00:10:20.367Z,41.00
2022-11-27T00:15:22.614Z,45.23
2022-11-27T00:20:29.711Z,46.47
2022-11-27T00:25:32.098Z,39.93
2022-11-27T00:30:33.779Z,44.00
2022-11-27T00:35:35.433Z,41.30
2022-11-27T00:40:37.159Z,46.10
2022-11-27T00:45:38.961Z,35.33
2022-11-27T00:50:42.690Z,43.43
2022-11-27T00:55:51.996Z,33.47
2022-11-27T01:00:57.437Z,36.53
2022-11-27T01:06:06.281Z,36.23
2022-11-27T01:11:08.170Z,43.93
2022-11-27T01:16:16.423Z,36.83
2022-11-27T01:21:20.081Z,29.87
2022-11-27T01:26:24.603Z,34.50
2022-11-27T01:31:28.772Z,37.93
2022-11-27T01:36:31.999Z,37.40
2022-11-27T01:41:39.783Z,33.70
2022-11-27T01:46:48.786Z,35.03
2022-11-27T01:52:15.355Z,33.00
2022-11-27T01:57:24.104Z,30.70
2022-11-27T02:02:28.661Z,36.80
2022-11-27T02:07:36.544Z,28.47
2022-11-27T02:12:47.076Z,31.83
2022-11-27T02:18:11.676Z,32.47
2022-11-27T02:23:40.528Z,31.27
2022-11-27T02:28:51.032Z,33.73
2022-11-27T02:33:55.219Z,31.17
2022-11-27T02:39:06.045Z,30.80
2022-11-27T02:44:09.310Z,25.47
2022-11-27T02:49:16.977Z,29.33
2022-11-27T02:54:27.860Z,27.40
2022-11-27T02:59:33.937Z,31.63
2022-11-27T03:04:41.886Z,26.53
2022-11-27T03:09:48.796Z,22.60
2022-11-27T03:14:53.015Z,23.87
2022-11-27T03:19:58.862Z,29.87
2022-11-27T03:25:01.074Z,19.23
2022-11-27T03:30:09.864Z,27.77
2022-11-27T03:35:15.621Z,23.10
2022-11-27T03:40:18.294Z,19.93
2022-11-27T03:45:50.281Z,21.60
2022-11-27T03:51:18.976Z,21.70
2022-11-27T03:56:41.910Z,25.23
2022-11-27T04:01:43.799Z,27.27
2022-11-27T04:06:50.089Z,24.17
2022-11-27T04:11:51.759Z,19.00
2022-11-27T04:17:00.299Z,19.33
2022-11-27T04:22:04.042Z,29.83
2022-11-27T04:27:05.723Z,19.00
2022-11-27T04:32:10.233Z,28.30
2022-11-27T04:37:11.975Z,23.80
2022-11-27T04:42:16.915Z,23.87
2022-11-27T04:47:20.887Z,26.10
2022-11-27T04:52:24.821Z,24.53
2022-11-27T04:57:28.852Z,25.67
2022-11-27T05:02:30.638Z,25.63
2022-11-27T05:07:32.460Z,25.77
2022-11-27T05:12:34.194Z,31.60
2022-11-27T05:17:35.883Z,27.93
2022-11-27T05:22:40.238Z,34.77
2022-11-27T05:27:48.875Z,29.70
2022-11-27T05:32:55.302Z,27.93
2022-11-27T05:37:59.173Z,32.93
2022-11-27T05:43:07.184Z,32.30
2022-11-27T05:48:10.947Z,34.47
2022-11-27T05:53:12.670Z,30.83
2022-11-27T05:58:18.966Z,32.00
2022-11-27T06:03:20.673Z,31.07
2022-11-27T06:08:22.634Z,28.60
2022-11-27T06:13:24.377Z,30.20
2022-11-27T06:18:26.024Z,27.83
2022-11-27T06:23:27.708Z,31.40
2022-11-27T06:28:29.353Z,29.20
2022-11-27T06:33:31.178Z,27.27
2022-11-27T06:38:36.728Z,32.70
2022-11-27T06:43:41.609Z,32.60
2022-11-27T06:48:50.928Z,28.83
2022-11-27T06:53:56.170Z,31.33
2022-11-27T06:59:02.347Z,28.20
2022-11-27T07:04:04.610Z,28.00
2022-11-27T07:09:09.868Z,29.50
2022-11-27T07:14:11.741Z,33.23
2022-11-27T07:19:24.700Z,29.50
2022-11-27T07:24:27.096Z,32.83
2022-11-27T07:29:31.092Z,28.67
2022-11-27T07:34:34.852Z,28.47
2022-11-27T07:40:00.672Z,28.00
2022-11-27T07:45:00.616Z,28.90
2022-11-27T07:50:07.352Z,26.83
2022-11-27T07:55:11.890Z,31.13
2022-11-27T08:00:14.050Z,21.70
2022-11-27T08:05:18.100Z,21.70
2022-11-27T08:10:19.935Z,22.10
2022-11-27T08:15:26.343Z,23.67
2022-11-27T08:20:30.550Z,23.30
2022-11-27T08:25:35.005Z,23.67
2022-11-27T08:30:37.882Z,23.93
2022-11-27T08:35:48.470Z,19.07
2022-11-27T08:41:00.270Z,21.63
2022-11-27T08:46:06.951Z,23.40
2022-11-27T08:51:15.712Z,20.47
2022-11-27T08:56:21.991Z,19.07
2022-11-27T09:01:29.339Z,19.17
2022-11-27T09:06:36.375Z,21.17
2022-11-27T09:11:42.690Z,20.53
2022-11-27T09:16:48.231Z,19.53
2022-11-27T09:21:50.566Z,23.47
2022-11-27T09:26:52.401Z,20.40
2022-11-27T09:31:56.429Z,18.40
2022-11-27T09:36:58.245Z,20.57
2022-11-27T09:42:04.442Z,18.43
2022-11-27T09:47:18.733Z,19.07
2022-11-27T09:52:40.890Z,23.33
2022-11-27T09:57:54.622Z,22.93
2022-11-27T10:02:58.662Z,22.03
2022-11-27T10:08:17.085Z,21.67
2022-11-27T10:13:43.534Z,22.73
2022-11-27T10:18:54.541Z,22.23
2022-11-27T10:24:19.887Z,20.53
2022-11-27T10:29:27.458Z,19.60
2022-11-27T10:34:38.598Z,19.37
2022-11-27T10:39:45.243Z,19.83
2022-11-27T10:44:59.994Z,19.13
2022-11-27T10:50:16.043Z,19.33
2022-11-27T10:55:25.647Z,22.20
2022-11-27T11:00:31.741Z,22.30
2022-11-27T11:05:56.947Z,25.60
2022-11-27T11:10:57.546Z,24.50
2022-11-27T11:16:34.964Z,22.17
2022-11-27T11:21:42.567Z,28.67
2022-11-27T11:26:52.854Z,21.67
2022-11-27T11:31:55.643Z,40.63
2022-11-27T11:37:05.113Z,25.57
2022-11-27T11:42:27.690Z,19.00
2022-11-27T11:47:29.474Z,16.97
2022-11-27T11:53:02.266Z,15.73
2022-11-27T11:58:10.167Z,16.00
2022-11-27T12:03:29.742Z,18.37
2022-11-27T12:09:13.432Z,15.63
2022-11-27T12:14:29.746Z,18.47
2022-11-27T12:19:49.248Z,23.60
2022-11-27T12:25:03.875Z,18.30
2022-11-27T12:30:16.800Z,20.10
2022-11-27T12:35:34.893Z,20.20
2022-11-27T12:41:04.870Z,21.67
2022-11-27T12:46:32.460Z,23.97
2022-11-27T12:52:14.453Z,24.40
2022-11-27T12:57:34.294Z,19.00
2022-11-27T13:03:00.283Z,18.97
2022-11-27T13:08:13.192Z,23.37
2022-11-27T13:13:20.494Z,26.07
2022-11-27T13:18:43.948Z,59.13
2022-11-27T13:23:47.988Z,26.57
2022-11-27T13:28:53.405Z,27.73
2022-11-27T13:34:05.007Z,23.17
2022-11-27T13:39:18.945Z,35.50
2022-11-27T13:44:25.047Z,25.07
2022-11-27T13:49:33.169Z,22.63
2022-11-27T13:54:34.960Z,24.63
2022-11-27T13:59:39.449Z,19.57
2022-11-27T14:04:55.867Z,18.60
2022-11-27T14:10:12.830Z,27.97
2022-11-27T14:15:20.279Z,23.37
2022-11-27T14:20:51.824Z,40.97
2022-11-27T14:26:05.414Z,33.73
2022-11-27T14:31:40.928Z,17.73
2022-11-27T14:36:42.869Z,22.80
2022-11-27T14:41:44.587Z,23.67
2022-11-27T14:46:51.323Z,21.17
2022-11-27T14:51:56.090Z,22.93
2022-11-27T14:57:00.878Z,22.33
2022-11-27T15:02:14.181Z,21.63
2022-11-27T15:07:23.225Z,18.50
2022-11-27T15:12:32.533Z,22.67
2022-11-27T15:17:37.150Z,44.13
2022-11-27T15:22:49.595Z,35.37
2022-11-27T15:27:51.551Z,28.87
2022-11-27T15:32:56.844Z,23.40
2022-11-27T15:38:05.320Z,23.33
2022-11-27T15:43:14.896Z,25.47
2022-11-27T15:48:24.341Z,23.13
2022-11-27T15:53:28.579Z,22.40
2022-11-27T15:58:31.007Z,29.30
2022-11-27T16:03:35.760Z,19.37
2022-11-27T16:08:41.070Z,25.60
2022-11-27T16:13:43.863Z,26.77
2022-11-27T16:18:47.844Z,24.60
2022-11-27T16:23:56.445Z,22.07
2022-11-27T16:29:03.592Z,25.67
2022-11-27T16:34:06.628Z,26.27
2022-11-27T16:39:08.554Z,26.37
2022-11-27T16:44:16.682Z,28.37
2022-11-27T16:49:19.063Z,31.93
2022-11-27T16:54:28.503Z,27.83
2022-11-27T16:59:38.018Z,30.57
2022-11-27T17:04:45.988Z,33.73
2022-11-27T17:09:59.851Z,29.47
2022-11-27T17:15:04.452Z,28.77
2022-11-27T17:20:09.642Z,26.83
2022-11-27T17:25:15.458Z,28.17
2022-11-27T17:30:19.440Z,25.43
2022-11-27T17:35:27.864Z,26.90
2022-11-27T17:40:32.808Z,24.73
2022-11-27T17:45:41.354Z,25.20
2022-11-27T17:50:45.452Z,31.57
2022-11-27T17:55:55.568Z,29.13
2022-11-27T18:00:57.772Z,31.33
2022-11-27T18:06:06.656Z,25.80
2022-11-27T18:11:25.011Z,30.73
2022-11-27T18:16:32.603Z,26.30
2022-11-27T18:21:40.260Z,27.63
2022-11-27T18:32:08.797Z,21.00
2022-11-27T18:37:12.032Z,18.47
2022-11-27T18:42:17.047Z,24.47
2022-11-27T18:47:20.037Z,20.90
2022-11-27T18:52:24.238Z,24.77
2022-11-27T18:57:26.160Z,22.33
2022-11-27T19:02:30.483Z,20.13
2022-11-27T19:07:32.295Z,25.03
2022-11-27T19:12:36.488Z,19.53
2022-11-27T19:17:40.287Z,23.00
2022-11-27T19:22:42.361Z,23.90
2022-11-27T19:27:49.315Z,20.87
2022-11-27T19:32:51.168Z,22.70
2022-11-27T19:37:55.441Z,25.67
2022-11-27T19:43:00.971Z,21.63
2022-11-27T19:48:11.639Z,28.30
2022-11-27T19:53:13.451Z,23.17
2022-11-27T19:58:20.627Z,71.67
2022-11-27T20:03:22.660Z,29.97
2022-11-27T20:08:29.134Z,28.50
2022-11-27T20:13:31.316Z,26.37
2022-11-27T20:18:36.283Z,26.40
2022-11-27T20:23:41.968Z,19.23
2022-11-27T20:28:46.215Z,21.40
2022-11-27T20:33:52.022Z,21.80
2022-11-27T20:38:57.582Z,20.53
2022-11-27T20:44:04.581Z,17.43
2022-11-27T20:49:06.438Z,16.53
2022-11-27T20:54:09.326Z,16.67
2022-11-27T20:59:12.521Z,16.57
2022-11-27T21:04:24.058Z,19.17
2022-11-27T21:09:29.569Z,17.03
2022-11-27T21:14:33.770Z,16.27
2022-11-27T21:19:39.954Z,18.60
2022-11-27T21:24:44.251Z,14.90
2022-11-27T21:29:46.320Z,14.53
2022-11-27T21:34:53.855Z,16.40
2022-11-27T21:39:56.388Z,14.67
2022-11-27T21:44:59.208Z,17.27
2022-11-27T21:50:00.974Z,14.40
2022-11-27T21:55:05.601Z,17.67
2022-11-27T22:00:13.439Z,17.80
2022-11-27T22:05:21.629Z,17.37
2022-11-27T22:10:23.459Z,18.20
2022-11-27T22:15:27.413Z,16.10
2022-11-27T22:20:31.458Z,21.13
2022-11-27T22:25:35.587Z,16.53
2022-11-27T22:30:39.931Z,17.07
2022-11-27T22:35:44.134Z,19.13
2022-11-27T22:40:45.912Z,16.57
2022-11-27T22:45:50.163Z,14.67
2022-11-27T22:50:58.996Z,20.03
2022-11-27T22:56:06.855Z,15.70
2022-11-27T23:01:20.826Z,17.07
2022-11-27T23:06:26.315Z,13.67
2022-11-27T23:11:28.642Z,12.37
2022-11-27T23:16:33.543Z,10.67
2022-11-27T23:21:37.590Z,13.73
2022-11-27T23:26:41.963Z,16.20
2022-11-27T23:31:43.792Z,14.33
2022-11-27T23:36:50.359Z,12.80
2022-11-27T23:41:54.552Z,15.77
2022-11-27T23:46:58.625Z,12.37
2022-11-27T23:52:00.570Z,12.70
2022-11-27T23:57:03.315Z,11.70
